Aviation Digital Data Service (ADDS)

Output produced by TAFs form (0141 UTC 22 November 2017)
found at http://www.aviationweather.gov/adds/tafs/
 
METAR text: RJAF 220100Z 16015KT 9999 SCT050 BKN/// 06/M02 Q1021
Conditions at: RJAF (MATSUMOTO AIRPOR, JP) observed 0100 UTC 22 November 2017
Temperature: 6.0°C (43°F)
Dewpoint: -2.0°C (28°F) [RH = 56%]
Pressure (altimeter): 30.15 inches Hg (1021.0 mb)
Winds: from the SSE (160 degrees) at 17 MPH (15 knots; 7.8 m/s)
Visibility: 6 or more miles (10+ km)
Ceiling: at least 12,000 feet AGL
Clouds: scattered clouds at 5000 feet AGL
Weather: no significant weather observed at this time